Nearby METAR Reports

 

K1A5 - Macon/Franklin, North Carolina, USA
Distance from station: WSW 16mi, 25km
Updated: Mon, 26-Feb-2024 6:30pm EST
Clear
Clear
 Wind from SSE
Wind: SSE 5 mph , 7 km/h
Temperature: 61°F , 16°C
Dew Point: 34°F , 1°C
Humidity: 36%
Barometer: 30.03 inHg , 1016.9 hPa
Clouds: Clear
Visibility: 10 miles , 16 km
2024/02/26 23:30 K1A5 262330Z AUTO 15004KT 10SM CLR 16/01 A3003 RMK AO2 T01560011
KAVL - Asheville, North Carolina, USA
Distance from station: ENE 36mi, 59km
Updated: Mon, 26-Feb-2024 5:54pm EST
Clear
Clear
 Wind from S
Wind: S 16 mph , 26 km/h
Temperature: 63°F , 17°C
Dew Point: 36°F , 2°C
Humidity: 37%
Barometer: 30.01 inHg , 1016.3 hPa
Clouds: Clear
Visibility: 10 miles , 16 km
2024/02/26 22:54 KAVL 262254Z 19014KT 10SM CLR 17/02 A3001 RMK AO2 SLP154 T01720017
 
KRHP - Andrews, North Carolina, USA
Distance from station: WSW 40mi, 64km
Updated: Mon, 26-Feb-2024 6:30pm EST
Clear
Clear
 Wind from SW
Wind: SW 7 mph , 11 km/h
Temperature: 63°F , 17°C
Dew Point: 32°F , 0°C
Humidity: 32%
Barometer: 29.99 inHg , 1015.6 hPa
Clouds: Clear
Visibility: 10 miles , 16 km
2024/02/26 23:30 KRHP 262330Z AUTO 23006KT 10SM CLR 17/00 A2999 RMK AO2 T01710003
KLQK - Pickens, South Carolina, USA
Distance from station: SE 42mi, 68km
Updated: Mon, 26-Feb-2024 6:35pm EST
Clear
Clear
 Wind from SSW
Wind: SSW 8 mph , 13 km/h
Temperature: 64°F , 18°C
Dew Point: 32°F , 0°C
Humidity: 30%
Barometer: 30.00 inHg , 1015.9 hPa
Clouds: Clear
Visibility: 10 miles , 16 km
2024/02/26 23:35 KLQK 262335Z AUTO 20007KT 10SM CLR 18/00 A3000 RMK AO2 T01841003
 
KCEU - Clemson, South Carolina, USA
Distance from station: SSE 46mi, 75km
Updated: Mon, 26-Feb-2024 5:54pm EST
Few Clouds
Few Clouds
 Wind from varies
Wind: varies 3 mph , 6 km/h
Temperature: 68°F , 20°C
Dew Point: 32°F , 0°C
Humidity: 26%
Barometer: 30.01 inHg , 1016.3 hPa
Clouds: Few Clouds
Visibility: 10 miles , 16 km
Cloud details: Few Clouds 9000 ft
2024/02/26 22:54 KCEU 262254Z AUTO VRB03KT 10SM FEW090 20/00 A3001 RMK AO2 SLP160 T02000000
KTOC - Toccoa, Georgia, USA
Distance from station: S 49mi, 79km
Updated: Mon, 26-Feb-2024 6:35pm EST
Clear
Clear
 Wind from S
Wind: S 5 mph , 7 km/h
Temperature: 66°F , 19°C
Dew Point: 30°F , -1°C
Humidity: 26%
Barometer: 30.00 inHg , 1015.9 hPa
Clouds: Clear
Visibility: 10 miles , 16 km
2024/02/26 23:35 KTOC 262335Z AUTO 19004KT 10SM CLR 19/M01 A3000 RMK AO2 T01891010